Palma De Mallorca, Spain

11:11 PM CEST on October 20, 2014 (GMT +0200)
Ciudad Jardin | Change Station
CLOSE
Current Station
Personal Weather Station
Location: Palma De Mallorca, ILLES BALEARS
Elevation: 20 ft
Nearby Weather Stations

Elev 20 ft 39.55 °N, 2.69 °E | Updated 5 seconds ago

Clear
Clear
66.7 °F
Feels Like 66.7 °F
N
0.0
Wind Variable Wind from WNW
Gusts 0.0 mph

Today
High -- | Low -- °F
--% Chance of Precip.
Yesterday
High -- | Low -- °F
Precip. -- in
8:04 AM 7:03 PM
Waning Crescent, 9% visible
Pressure 30.12 in
Visibility -9999.0 miles
Clouds
Dew Point 60 °F
Humidity 80%
Rainfall 0.00 in
Snow Depth Not available.
UV Not available.
Pollen Not available.
Air Quality Not available.
Flu Activity Not available.
METAR LEPA 202100Z 00000KT CAVOK 17/17 Q1020 NOSIG

More Conditions Fewer Conditions

Pressure 30.12 in
Visibility -9999.0 miles
Clouds
Dew Point 60 °F
Humidity 80%
Rainfall 0.00 in
Snow Depth Not available.
UV Not available.
Pollen Not available.
Air Quality Not available.
Flu Activity Not available.
METAR LEPA 202100Z 00000KT CAVOK 17/17 Q1020 NOSIG

More Conditions Fewer Conditions

10-Day Weather Forecast

Almanac

Astronomy

Oct. 20, 2014 Rise Set
Actual Time 8:04 AM CEST 7:03 PM CEST
Civil Twilight 7:36 AM CEST 7:30 PM CEST
Nautical Twilight 7:05 AM CEST 8:01 PM CEST
Astronomical Twilight 6:34 AM CEST 8:32 PM CEST
Moon 4:38 AM CEST 5:17 PM CEST
Length Of Visible Light 11h 53m
Length of Day
10h 59m
Tomorrow will be 2m 27s shorter.
Waning Crescent, 9% of the Moon is Illuminated
Today
Waning Crescent
Oct 23
New
Oct 30
First Quarter
Nov 6
Full
Nov 14
Last Quarter

Today's Extremes

Country Highs Country Lows

Community

WunderPhotos

Upload Photos

1,763,510 photos uploaded!

WunderBlogs® & News

By Dr. Jeff Masters
Director of Meteorology, Weather Underground
By Kari Strenfel
Meteorologist, Weather Underground
By Christopher C. Burt
Weather Historian, Weather Underground
October 20, 2014
October 20, 2014
October 20, 2014

Nearby

Snow Depth

Not available.

Earthquake Activity

City Distance Mag. Time & Date
No recent earthquake activity has been reported nearby.
Minimum magnitude displayed is 2.5.

Coastal Water Temperatures

Place Temperature
No Stations Reporting

Nearby Weather Stations